sensor_id;sensor_type;location;lat;lon;timestamp;pressure;altitude;pressure_sealevel;temperature;humidity
72438;BME280;60444;43.534;-5.674;2022-12-10T00:01:43;101012.31;;;11.97;100.00
72438;BME280;60444;43.534;-5.674;2022-12-10T00:04:10;101012.31;;;11.97;100.00
72438;BME280;60444;43.534;-5.674;2022-12-10T00:06:37;100997.63;;;11.84;100.00
72438;BME280;60444;43.534;-5.674;2022-12-10T00:09:05;101009.75;;;11.94;100.00
72438;BME280;60444;43.534;-5.674;2022-12-10T00:11:31;101023.94;;;11.99;100.00
72438;BME280;60444;43.534;-5.674;2022-12-10T00:13:57;101024.03;;;11.98;100.00
72438;BME280;60444;43.534;-5.674;2022-12-10T00:16:25;101021.22;;;11.99;100.00
72438;BME280;60444;43.534;-5.674;2022-12-10T00:18:52;101016.78;;;11.98;100.00
72438;BME280;60444;43.534;-5.674;2022-12-10T00:21:23;101011.84;;;11.89;100.00
72438;BME280;60444;43.534;-5.674;2022-12-10T00:23:50;101025.06;;;11.95;100.00
72438;BME280;60444;43.534;-5.674;2022-12-10T00:26:36;101031.13;;;12.00;100.00
72438;BME280;60444;43.534;-5.674;2022-12-10T00:29:04;101025.72;;;12.00;100.00
72438;BME280;60444;43.534;-5.674;2022-12-10T00:31:33;101024.75;;;12.01;100.00
72438;BME280;60444;43.534;-5.674;2022-12-10T00:34:01;101032.97;;;12.00;100.00
72438;BME280;60444;43.534;-5.674;2022-12-10T00:36:30;101031.19;;;11.99;100.00
72438;BME280;60444;43.534;-5.674;2022-12-10T00:38:56;101019.88;;;11.91;100.00
72438;BME280;60444;43.534;-5.674;2022-12-10T00:41:22;101019.72;;;11.94;100.00
72438;BME280;60444;43.534;-5.674;2022-12-10T00:43:48;101042.03;;;11.99;100.00
72438;BME280;60444;43.534;-5.674;2022-12-10T00:46:18;101041.09;;;12.00;100.00
72438;BME280;60444;43.534;-5.674;2022-12-10T00:48:44;101040.13;;;12.01;100.00
72438;BME280;60444;43.534;-5.674;2022-12-10T00:51:18;101028.72;;;11.94;100.00
72438;BME280;60444;43.534;-5.674;2022-12-10T00:53:46;101040.22;;;11.99;100.00
72438;BME280;60444;43.534;-5.674;2022-12-10T00:56:14;101034.00;;;11.97;100.00
72438;BME280;60444;43.534;-5.674;2022-12-10T00:58:40;101033.44;;;11.91;100.00
72438;BME280;60444;43.534;-5.674;2022-12-10T01:01:25;101027.03;;;11.92;100.00
72438;BME280;60444;43.534;-5.674;2022-12-10T01:03:54;101038.56;;;11.97;100.00
72438;BME280;60444;43.534;-5.674;2022-12-10T01:07:07;101022.59;;;11.91;100.00
72438;BME280;60444;43.534;-5.674;2022-12-10T01:09:28;101037.75;;;11.95;100.00
72438;BME280;60444;43.534;-5.674;2022-12-10T01:11:55;101023.88;;;11.84;100.00
72438;BME280;60444;43.534;-5.674;2022-12-10T01:14:24;101019.25;;;11.86;100.00
72438;BME280;60444;43.534;-5.674;2022-12-10T01:16:54;101023.88;;;11.84;100.00
72438;BME280;60444;43.534;-5.674;2022-12-10T01:19:19;101042.13;;;11.97;100.00
72438;BME280;60444;43.534;-5.674;2022-12-10T01:21:49;101026.31;;;11.88;100.00
72438;BME280;60444;43.534;-5.674;2022-12-10T01:24:15;101034.47;;;11.88;100.00
72438;BME280;60444;43.534;-5.674;2022-12-10T01:26:40;101049.44;;;11.95;100.00
72438;BME280;60444;43.534;-5.674;2022-12-10T01:29:06;101032.53;;;11.90;100.00
72438;BME280;60444;43.534;-5.674;2022-12-10T01:31:35;101059.03;;;12.02;100.00
72438;BME280;60444;43.534;-5.674;2022-12-10T01:34:01;101054.56;;;12.01;100.00
72438;BME280;60444;43.534;-5.674;2022-12-10T01:36:33;101060.88;;;12.02;100.00
72438;BME280;60444;43.534;-5.674;2022-12-10T01:39:00;101058.16;;;12.02;100.00
72438;BME280;60444;43.534;-5.674;2022-12-10T01:41:29;101070.66;;;12.04;100.00
72438;BME280;60444;43.534;-5.674;2022-12-10T01:43:59;101074.34;;;12.03;100.00
72438;BME280;60444;43.534;-5.674;2022-12-10T01:46:31;101078.97;;;12.01;100.00
72438;BME280;60444;43.534;-5.674;2022-12-10T01:48:58;101079.06;;;12.00;100.00
72438;BME280;60444;43.534;-5.674;2022-12-10T01:51:27;101066.34;;;11.83;100.00
72438;BME280;60444;43.534;-5.674;2022-12-10T01:53:53;101058.13;;;11.85;100.00
72438;BME280;60444;43.534;-5.674;2022-12-10T01:56:19;101059.94;;;11.84;100.00
72438;BME280;60444;43.534;-5.674;2022-12-10T01:58:47;101083.03;;;11.93;100.00
72438;BME280;60444;43.534;-5.674;2022-12-10T02:01:46;101073.66;;;11.81;100.00
72438;BME280;60444;43.534;-5.674;2022-12-10T02:07:06;101105.97;;;11.86;100.00
72438;BME280;60444;43.534;-5.674;2022-12-10T02:09:35;101107.81;;;11.85;100.00
72438;BME280;60444;43.534;-5.674;2022-12-10T02:12:12;101085.94;;;11.71;100.00
72438;BME280;60444;43.534;-5.674;2022-12-10T02:17:19;101104.38;;;11.82;100.00
72438;BME280;60444;43.534;-5.674;2022-12-10T02:22:32;101133.00;;;11.87;100.00
72438;BME280;60444;43.534;-5.674;2022-12-10T02:24:59;101129.78;;;11.79;100.00
72438;BME280;60444;43.534;-5.674;2022-12-10T02:30:05;101132.34;;;11.82;100.00
72438;BME280;60444;43.534;-5.674;2022-12-10T02:32:37;101129.66;;;11.82;100.00
72438;BME280;60444;43.534;-5.674;2022-12-10T02:35:07;101128.69;;;11.83;100.00
72438;BME280;60444;43.534;-5.674;2022-12-10T02:37:42;101128.75;;;11.82;100.00
72438;BME280;60444;43.534;-5.674;2022-12-10T02:40:16;101152.63;;;11.92;100.00
72438;BME280;60444;43.534;-5.674;2022-12-10T02:42:47;101155.41;;;11.91;100.00
72438;BME280;60444;43.534;-5.674;2022-12-10T02:45:15;101153.00;;;11.85;100.00
72438;BME280;60444;43.534;-5.674;2022-12-10T02:47:41;101147.66;;;11.83;100.00
72438;BME280;60444;43.534;-5.674;2022-12-10T02:50:10;101125.03;;;11.66;100.00
72438;BME280;60444;43.534;-5.674;2022-12-10T02:52:36;101158.41;;;11.85;100.00
72438;BME280;60444;43.534;-5.674;2022-12-10T02:55:02;101162.28;;;11.79;100.00
72438;BME280;60444;43.534;-5.674;2022-12-10T03:00:25;101164.88;;;11.82;100.00
72438;BME280;60444;43.534;-5.674;2022-12-10T03:03:17;101165.75;;;11.83;100.00
72438;BME280;60444;43.534;-5.674;2022-12-10T03:08:25;101139.31;;;11.69;100.00
72438;BME280;60444;43.534;-5.674;2022-12-10T03:11:07;101157.59;;;11.83;100.00
72438;BME280;60444;43.534;-5.674;2022-12-10T03:16:19;101127.00;;;11.62;100.00
72438;BME280;60444;43.534;-5.674;2022-12-10T03:18:51;101160.41;;;11.81;100.00
72438;BME280;60444;43.534;-5.674;2022-12-10T03:21:18;101151.78;;;11.73;100.00
72438;BME280;60444;43.534;-5.674;2022-12-10T03:23:46;101148.09;;;11.74;100.00
72438;BME280;60444;43.534;-5.674;2022-12-10T03:26:12;101164.00;;;11.82;100.00
72438;BME280;60444;43.534;-5.674;2022-12-10T03:28:42;101158.78;;;11.77;100.00
72438;BME280;60444;43.534;-5.674;2022-12-10T03:31:12;101170.31;;;11.82;100.00
72438;BME280;60444;43.534;-5.674;2022-12-10T03:33:39;101153.22;;;11.80;100.00
72438;BME280;60444;43.534;-5.674;2022-12-10T03:36:06;101156.88;;;11.79;100.00
72438;BME280;60444;43.534;-5.674;2022-12-10T03:38:33;101160.31;;;11.83;100.00
72438;BME280;60444;43.534;-5.674;2022-12-10T03:40:59;101148.09;;;11.74;100.00
72438;BME280;60444;43.534;-5.674;2022-12-10T03:43:25;101163.91;;;11.83;100.00
72438;BME280;60444;43.534;-5.674;2022-12-10T03:45:50;101139.16;;;11.72;100.00
72438;BME280;60444;43.534;-5.674;2022-12-10T03:48:16;101166.63;;;11.83;100.00
72438;BME280;60444;43.534;-5.674;2022-12-10T03:50:41;101133.97;;;11.68;100.00
72438;BME280;60444;43.534;-5.674;2022-12-10T03:53:07;101159.59;;;11.79;100.00
72438;BME280;60444;43.534;-5.674;2022-12-10T03:55:32;101160.31;;;11.83;100.00
72438;BME280;60444;43.534;-5.674;2022-12-10T03:57:58;101140.94;;;11.73;100.00
72438;BME280;60444;43.534;-5.674;2022-12-10T04:00:24;101155.22;;;11.77;100.00
72438;BME280;60444;43.534;-5.674;2022-12-10T04:02:49;101151.53;;;11.78;100.00
72438;BME280;60444;43.534;-5.674;2022-12-10T04:05:15;101141.06;;;11.70;100.00
72438;BME280;60444;43.534;-5.674;2022-12-10T04:07:41;101163.03;;;11.83;100.00
72438;BME280;60444;43.534;-5.674;2022-12-10T04:10:06;101162.16;;;11.82;100.00
72438;BME280;60444;43.534;-5.674;2022-12-10T04:12:32;101145.38;;;11.74;100.00
72438;BME280;60444;43.534;-5.674;2022-12-10T04:14:57;101158.66;;;11.80;100.00
72438;BME280;60444;43.534;-5.674;2022-12-10T04:17:42;101148.03;;;11.76;100.00
72438;BME280;60444;43.534;-5.674;2022-12-10T04:20:08;101137.41;;;11.71;100.00
72438;BME280;60444;43.534;-5.674;2022-12-10T04:22:56;101144.75;;;11.69;100.00
72438;BME280;60444;43.534;-5.674;2022-12-10T04:25:40;101152.78;;;11.71;100.00
72438;BME280;60444;43.534;-5.674;2022-12-10T04:28:24;101169.56;;;11.79;100.00
72438;BME280;60444;43.534;-5.674;2022-12-10T04:30:49;101132.50;;;11.61;100.00
72438;BME280;60444;43.534;-5.674;2022-12-10T04:33:15;101150.97;;;11.71;100.00
72438;BME280;60444;43.534;-5.674;2022-12-10T04:35:41;101155.41;;;11.72;100.00
72438;BME280;60444;43.534;-5.674;2022-12-10T04:38:07;101168.69;;;11.78;100.00
72438;BME280;60444;43.534;-5.674;2022-12-10T04:40:32;101138.75;;;11.61;100.00
72438;BME280;60444;43.534;-5.674;2022-12-10T04:42:58;101140.47;;;11.64;100.00
72438;BME280;60444;43.534;-5.674;2022-12-10T04:45:23;101152.72;;;11.72;100.00
72438;BME280;60444;43.534;-5.674;2022-12-10T04:47:48;101167.88;;;11.76;100.00
72438;BME280;60444;43.534;-5.674;2022-12-10T04:50:14;101139.66;;;11.62;100.00
72438;BME280;60444;43.534;-5.674;2022-12-10T04:52:39;101149.47;;;11.64;100.00
72438;BME280;60444;43.534;-5.674;2022-12-10T04:55:05;101143.38;;;11.59;100.00
72438;BME280;60444;43.534;-5.674;2022-12-10T04:57:31;101155.72;;;11.66;100.00
72438;BME280;60444;43.534;-5.674;2022-12-10T04:59:56;101174.47;;;11.71;100.00
72438;BME280;60444;43.534;-5.674;2022-12-10T05:02:22;101179.00;;;11.70;100.00
72438;BME280;60444;43.534;-5.674;2022-12-10T05:04:49;101165.84;;;11.61;100.00
72438;BME280;60444;43.534;-5.674;2022-12-10T05:07:14;101187.38;;;11.66;100.00
72438;BME280;60444;43.534;-5.674;2022-12-10T05:09:40;101179.28;;;11.64;100.00
72438;BME280;60444;43.534;-5.674;2022-12-10T05:12:05;101182.09;;;11.61;100.00
72438;BME280;60444;43.534;-5.674;2022-12-10T05:14:32;101157.34;;;11.50;100.00
72438;BME280;60444;43.534;-5.674;2022-12-10T05:16:57;101153.78;;;11.49;100.00
72438;BME280;60444;43.534;-5.674;2022-12-10T05:19:23;101174.28;;;11.55;100.00
72438;BME280;60444;43.534;-5.674;2022-12-10T05:21:51;101153.19;;;11.43;100.00
72438;BME280;60444;43.534;-5.674;2022-12-10T05:24:35;101152.53;;;11.38;100.00
72438;BME280;60444;43.534;-5.674;2022-12-10T05:27:01;101190.53;;;11.55;100.00
72438;BME280;60444;43.534;-5.674;2022-12-10T05:29:27;101196.00;;;11.53;100.00
72438;BME280;60444;43.534;-5.674;2022-12-10T05:31:52;101191.09;;;11.43;100.00
72438;BME280;60444;43.534;-5.674;2022-12-10T05:34:18;101183.28;;;11.37;100.00
72438;BME280;60444;43.534;-5.674;2022-12-10T05:36:44;101199.31;;;11.41;100.00
72438;BME280;60444;43.534;-5.674;2022-12-10T05:39:10;101213.38;;;11.49;100.00
72438;BME280;60444;43.534;-5.674;2022-12-10T05:41:38;101212.50;;;11.49;100.00
72438;BME280;60444;43.534;-5.674;2022-12-10T05:44:04;101206.41;;;11.44;100.00
72438;BME280;60444;43.534;-5.674;2022-12-10T05:46:32;101203.56;;;11.47;100.00
72438;BME280;60444;43.534;-5.674;2022-12-10T05:49:00;101196.41;;;11.46;100.00
72438;BME280;60444;43.534;-5.674;2022-12-10T05:51:28;101171.72;;;11.33;100.00
72438;BME280;60444;43.534;-5.674;2022-12-10T05:53:54;101192.41;;;11.34;100.00
72438;BME280;60444;43.534;-5.674;2022-12-10T05:56:22;101210.78;;;11.46;100.00
72438;BME280;60444;43.534;-5.674;2022-12-10T05:58:50;101186.09;;;11.34;100.00
72438;BME280;60444;43.534;-5.674;2022-12-10T06:01:21;101178.22;;;11.29;100.00
72438;BME280;60444;43.534;-5.674;2022-12-10T06:03:47;101197.69;;;11.37;100.00
72438;BME280;60444;43.534;-5.674;2022-12-10T06:06:20;101210.22;;;11.40;100.00
72438;BME280;60444;43.534;-5.674;2022-12-10T06:08:46;101197.75;;;11.36;100.00
72438;BME280;60444;43.534;-5.674;2022-12-10T06:11:11;101207.50;;;11.40;100.00
72438;BME280;60444;43.534;-5.674;2022-12-10T06:13:37;101212.84;;;11.41;100.00
72438;BME280;60444;43.534;-5.674;2022-12-10T06:16:08;101223.59;;;11.43;100.00
72438;BME280;60444;43.534;-5.674;2022-12-10T06:18:34;101220.03;;;11.42;100.00
72438;BME280;60444;43.534;-5.674;2022-12-10T06:21:07;101202.44;;;11.32;100.00
72438;BME280;60444;43.534;-5.674;2022-12-10T06:23:35;101221.72;;;11.45;100.00
72438;BME280;60444;43.534;-5.674;2022-12-10T06:26:05;101219.97;;;11.44;100.00
72438;BME280;60444;43.534;-5.674;2022-12-10T06:28:31;101222.59;;;11.45;100.00
72438;BME280;60444;43.534;-5.674;2022-12-10T06:30:58;101218.34;;;11.40;100.00
72438;BME280;60444;43.534;-5.674;2022-12-10T06:33:24;101214.47;;;11.45;100.00
72438;BME280;60444;43.534;-5.674;2022-12-10T06:35:50;101206.03;;;11.33;100.00
72438;BME280;60444;43.534;-5.674;2022-12-10T06:38:15;101228.91;;;11.46;100.00
72438;BME280;60444;43.534;-5.674;2022-12-10T06:40:41;101205.00;;;11.35;100.00
72438;BME280;60444;43.534;-5.674;2022-12-10T06:43:07;101209.41;;;11.38;100.00
72438;BME280;60444;43.534;-5.674;2022-12-10T06:45:32;101221.72;;;11.45;100.00
72438;BME280;60444;43.534;-5.674;2022-12-10T06:47:58;101209.25;;;11.41;100.00
72438;BME280;60444;43.534;-5.674;2022-12-10T06:50:24;101180.09;;;11.27;100.00
72438;BME280;60444;43.534;-5.674;2022-12-10T06:52:50;101208.31;;;11.42;100.00
72438;BME280;60444;43.534;-5.674;2022-12-10T06:55:16;101213.50;;;11.46;100.00
72438;BME280;60444;43.534;-5.674;2022-12-10T06:57:41;101208.50;;;11.37;100.00
72438;BME280;60444;43.534;-5.674;2022-12-10T07:00:08;101216.50;;;11.40;100.00
72438;BME280;60444;43.534;-5.674;2022-12-10T07:02:33;101201.50;;;11.33;100.00
72438;BME280;60444;43.534;-5.674;2022-12-10T07:05:00;101213.19;;;11.34;100.00
72438;BME280;60444;43.534;-5.674;2022-12-10T07:07:25;101225.66;;;11.38;100.00
72438;BME280;60444;43.534;-5.674;2022-12-10T07:09:51;101248.78;;;11.45;100.00
72438;BME280;60444;43.534;-5.674;2022-12-10T07:12:16;101245.56;;;11.37;100.00
72438;BME280;60444;43.534;-5.674;2022-12-10T07:14:42;101243.13;;;11.31;100.00
72438;BME280;60444;43.534;-5.674;2022-12-10T07:17:07;101268.72;;;11.44;100.00
72438;BME280;60444;43.534;-5.674;2022-12-10T07:19:33;101253.88;;;11.32;100.00
72438;BME280;60444;43.534;-5.674;2022-12-10T07:21:58;101277.78;;;11.43;100.00
72438;BME280;60444;43.534;-5.674;2022-12-10T07:24:24;101279.56;;;11.44;100.00
72438;BME280;60444;43.534;-5.674;2022-12-10T07:26:50;101286.72;;;11.45;100.00
72438;BME280;60444;43.534;-5.674;2022-12-10T07:29:18;101285.97;;;11.41;100.00
72438;BME280;60444;43.534;-5.674;2022-12-10T07:31:44;101301.28;;;11.42;100.00
72438;BME280;60444;43.534;-5.674;2022-12-10T07:34:11;101302.22;;;11.41;100.00
72438;BME280;60444;43.534;-5.674;2022-12-10T07:36:37;101312.06;;;11.44;100.00
72438;BME280;60444;43.534;-5.674;2022-12-10T07:39:06;101300.56;;;11.39;100.00
72438;BME280;60444;43.534;-5.674;2022-12-10T07:41:32;101318.34;;;11.44;100.00
72438;BME280;60444;43.534;-5.674;2022-12-10T07:44:02;101301.56;;;11.36;100.00
72438;BME280;60444;43.534;-5.674;2022-12-10T07:46:30;101316.50;;;11.45;100.00
72438;BME280;60444;43.534;-5.674;2022-12-10T07:48:59;101310.44;;;11.40;100.00
72438;BME280;60444;43.534;-5.674;2022-12-10T07:51:25;101303.53;;;11.33;100.00
72438;BME280;60444;43.534;-5.674;2022-12-10T07:53:51;101319.38;;;11.42;100.00
72438;BME280;60444;43.534;-5.674;2022-12-10T07:56:18;101317.47;;;11.44;100.00
72438;BME280;60444;43.534;-5.674;2022-12-10T07:58:45;101308.53;;;11.42;100.00
72438;BME280;60444;43.534;-5.674;2022-12-10T08:01:12;101309.34;;;11.44;100.00
72438;BME280;60444;43.534;-5.674;2022-12-10T08:03:39;101308.38;;;11.45;100.00
72438;BME280;60444;43.534;-5.674;2022-12-10T08:06:08;101319.22;;;11.45;100.00
72438;BME280;60444;43.534;-5.674;2022-12-10T08:08:35;101313.81;;;11.45;100.00
72438;BME280;60444;43.534;-5.674;2022-12-10T08:11:03;101300.59;;;11.37;100.00
72438;BME280;60444;43.534;-5.674;2022-12-10T08:13:29;101311.31;;;11.40;100.00
72438;BME280;60444;43.534;-5.674;2022-12-10T08:16:00;101306.16;;;11.34;100.00
72438;BME280;60444;43.534;-5.674;2022-12-10T08:18:26;101314.09;;;11.39;100.00
72438;BME280;60444;43.534;-5.674;2022-12-10T08:20:54;101323.16;;;11.38;100.00
72438;BME280;60444;43.534;-5.674;2022-12-10T08:23:20;101295.72;;;11.25;100.00
72438;BME280;60444;43.534;-5.674;2022-12-10T08:25:45;101298.59;;;11.22;100.00
72438;BME280;60444;43.534;-5.674;2022-12-10T08:28:11;101311.97;;;11.25;100.00
72438;BME280;60444;43.534;-5.674;2022-12-10T08:30:36;101327.91;;;11.33;100.00
72438;BME280;60444;43.534;-5.674;2022-12-10T08:33:02;101321.00;;;11.26;100.00
72438;BME280;60444;43.534;-5.674;2022-12-10T08:35:28;101328.91;;;11.30;100.00
72438;BME280;60444;43.534;-5.674;2022-12-10T08:37:53;101307.72;;;11.20;100.00
72438;BME280;60444;43.534;-5.674;2022-12-10T08:40:19;101315.75;;;11.21;100.00
72438;BME280;60444;43.534;-5.674;2022-12-10T08:42:44;101327.09;;;11.31;100.00
72438;BME280;60444;43.534;-5.674;2022-12-10T08:45:10;101312.97;;;11.23;100.00
72438;BME280;60444;43.534;-5.674;2022-12-10T08:47:35;101316.50;;;11.25;100.00
72438;BME280;60444;43.534;-5.674;2022-12-10T08:50:01;101318.34;;;11.24;100.00
72438;BME280;60444;43.534;-5.674;2022-12-10T08:52:27;101334.19;;;11.33;100.00
72438;BME280;60444;43.534;-5.674;2022-12-10T08:54:54;101330.59;;;11.33;100.00
72438;BME280;60444;43.534;-5.674;2022-12-10T08:57:20;101310.41;;;11.20;100.00
72438;BME280;60444;43.534;-5.674;2022-12-10T08:59:47;101328.81;;;11.32;100.00
72438;BME280;60444;43.534;-5.674;2022-12-10T09:02:13;101339.34;;;11.39;100.00
72438;BME280;60444;43.534;-5.674;2022-12-10T09:04:38;101343.81;;;11.40;100.00
72438;BME280;60444;43.534;-5.674;2022-12-10T09:07:04;101325.34;;;11.30;100.00
72438;BME280;60444;43.534;-5.674;2022-12-10T09:09:33;101342.78;;;11.43;100.00
72438;BME280;60444;43.534;-5.674;2022-12-10T09:11:59;101317.25;;;11.28;100.00
72438;BME280;60444;43.534;-5.674;2022-12-10T09:14:24;101335.75;;;11.39;100.00
72438;BME280;60444;43.534;-5.674;2022-12-10T09:16:50;101339.88;;;11.47;100.00
72438;BME280;60444;43.534;-5.674;2022-12-10T09:19:15;101316.00;;;11.37;100.00
72438;BME280;60444;43.534;-5.674;2022-12-10T09:21:41;101347.78;;;11.52;100.00
72438;BME280;60444;43.534;-5.674;2022-12-10T09:24:07;101351.31;;;11.54;100.00
72438;BME280;60444;43.534;-5.674;2022-12-10T09:26:33;101334.66;;;11.43;100.00
72438;BME280;60444;43.534;-5.674;2022-12-10T09:28:58;101334.66;;;11.43;100.00
72438;BME280;60444;43.534;-5.674;2022-12-10T09:31:25;101345.91;;;11.54;100.00
72438;BME280;60444;43.534;-5.674;2022-12-10T09:33:54;101361.00;;;11.60;100.00
72438;BME280;60444;43.534;-5.674;2022-12-10T09:36:20;101342.53;;;11.49;100.00
72438;BME280;60444;43.534;-5.674;2022-12-10T09:38:46;101345.91;;;11.54;100.00
72438;BME280;60444;43.534;-5.674;2022-12-10T09:41:37;101334.88;;;11.59;100.00
72438;BME280;60444;43.534;-5.674;2022-12-10T09:44:45;101350.84;;;11.66;100.00
72438;BME280;60444;43.534;-5.674;2022-12-10T09:47:17;101346.28;;;11.67;100.00
72438;BME280;60444;43.534;-5.674;2022-12-10T09:49:59;101329.22;;;11.63;100.00
72438;BME280;60444;43.534;-5.674;2022-12-10T09:52:39;101341.84;;;11.64;100.00
72438;BME280;60444;43.534;-5.674;2022-12-10T09:55:37;101355.06;;;11.72;100.00
72438;BME280;60444;43.534;-5.674;2022-12-10T09:58:05;101359.63;;;11.71;100.00
72438;BME280;60444;43.534;-5.674;2022-12-10T10:00:46;101356.03;;;11.71;100.00
72438;BME280;60444;43.534;-5.674;2022-12-10T10:03:14;101357.03;;;11.68;100.00
72438;BME280;60444;43.534;-5.674;2022-12-10T10:08:28;101332.03;;;11.62;100.00
72438;BME280;60444;43.534;-5.674;2022-12-10T10:10:56;101352.16;;;11.76;100.00
72438;BME280;60444;43.534;-5.674;2022-12-10T10:13:41;101350.53;;;11.72;100.00
72438;BME280;60444;43.534;-5.674;2022-12-10T10:18:48;101342.63;;;11.68;100.00
72438;BME280;60444;43.534;-5.674;2022-12-10T10:21:32;101344.19;;;11.73;100.00
72438;BME280;60444;43.534;-5.674;2022-12-10T10:23:58;101349.44;;;11.76;100.00
72438;BME280;60444;43.534;-5.674;2022-12-10T10:26:25;101341.47;;;11.73;100.00
72438;BME280;60444;43.534;-5.674;2022-12-10T10:29:05;101333.47;;;11.70;100.00
72438;BME280;60444;43.534;-5.674;2022-12-10T10:31:32;101349.31;;;11.79;100.00
72438;BME280;60444;43.534;-5.674;2022-12-10T10:34:04;101354.47;;;11.85;100.00
72438;BME280;60444;43.534;-5.674;2022-12-10T10:36:36;101361.34;;;11.92;100.00
72438;BME280;60444;43.534;-5.674;2022-12-10T10:39:27;101353.22;;;11.92;100.00
72438;BME280;60444;43.534;-5.674;2022-12-10T10:41:57;101345.59;;;11.82;100.00
72438;BME280;60444;43.534;-5.674;2022-12-10T10:44:26;101336.41;;;11.84;100.00
72438;BME280;60444;43.534;-5.674;2022-12-10T10:46:53;101368.09;;;12.02;100.00
72438;BME280;60444;43.534;-5.674;2022-12-10T10:49:32;101361.75;;;12.03;100.00
72438;BME280;60444;43.534;-5.674;2022-12-10T10:52:14;101343.13;;;11.96;100.00
72438;BME280;60444;43.534;-5.674;2022-12-10T10:54:42;101346.22;;;12.07;100.00
72438;BME280;60444;43.534;-5.674;2022-12-10T10:57:34;101342.69;;;12.05;100.00
72438;BME280;60444;43.534;-5.674;2022-12-10T11:00:22;101348.69;;;12.11;100.00
72438;BME280;60444;43.534;-5.674;2022-12-10T11:02:48;101340.44;;;12.14;100.00
72438;BME280;60444;43.534;-5.674;2022-12-10T11:05:21;101343.06;;;12.16;100.00
72438;BME280;60444;43.534;-5.674;2022-12-10T11:07:57;101329.13;;;12.05;100.00
72438;BME280;60444;43.534;-5.674;2022-12-10T11:10:24;101328.03;;;12.09;100.00
72438;BME280;60444;43.534;-5.674;2022-12-10T11:13:06;101324.63;;;12.24;100.00
72438;BME280;60444;43.534;-5.674;2022-12-10T11:15:41;101307.69;;;12.00;100.00
72438;BME280;60444;43.534;-5.674;2022-12-10T11:23:44;101308.34;;;12.24;100.00
72438;BME280;60444;43.534;-5.674;2022-12-10T11:29:14;101297.91;;;12.33;100.00
72438;BME280;60444;43.534;-5.674;2022-12-10T11:31:57;101270.44;;;12.22;100.00
72438;BME280;60444;43.534;-5.674;2022-12-10T11:37:32;101273.56;;;12.32;100.00
72438;BME280;60444;43.534;-5.674;2022-12-10T11:45:27;101277.75;;;12.39;100.00
72438;BME280;60444;43.534;-5.674;2022-12-10T11:48:24;101294.38;;;12.50;100.00
72438;BME280;60444;43.534;-5.674;2022-12-10T11:50:59;101279.94;;;12.49;100.00
72438;BME280;60444;43.534;-5.674;2022-12-10T11:56:44;101257.41;;;12.47;100.00
72438;BME280;60444;43.534;-5.674;2022-12-10T11:59:23;101282.06;;;12.62;100.00
72438;BME280;60444;43.534;-5.674;2022-12-10T12:12:59;101250.94;;;12.69;100.00
72438;BME280;60444;43.534;-5.674;2022-12-10T12:15:31;101241.09;;;12.66;100.00
72438;BME280;60444;43.534;-5.674;2022-12-10T12:18:28;101264.34;;;12.72;100.00
72438;BME280;60444;43.534;-5.674;2022-12-10T12:21:01;101249.41;;;12.63;100.00
72438;BME280;60444;43.534;-5.674;2022-12-10T12:26:13;101258.75;;;12.75;100.00
72438;BME280;60444;43.534;-5.674;2022-12-10T12:31:37;101246.94;;;12.76;100.00
72438;BME280;60444;43.534;-5.674;2022-12-10T12:36:34;101223.47;;;12.75;100.00
72438;BME280;60444;43.534;-5.674;2022-12-10T12:39:06;101243.84;;;12.83;100.00
72438;BME280;60444;43.534;-5.674;2022-12-10T12:44:24;101234.50;;;12.89;100.00
72438;BME280;60444;43.534;-5.674;2022-12-10T12:49:41;101222.94;;;12.85;100.00
72438;BME280;60444;43.534;-5.674;2022-12-10T12:54:40;101206.88;;;12.81;100.00
72438;BME280;60444;43.534;-5.674;2022-12-10T12:57:45;101217.34;;;12.88;100.00
72438;BME280;60444;43.534;-5.674;2022-12-10T13:00:16;101216.44;;;12.88;100.00
72438;BME280;60444;43.534;-5.674;2022-12-10T13:03:08;101223.31;;;12.95;100.00
72438;BME280;60444;43.534;-5.674;2022-12-10T13:05:43;101231.63;;;12.92;100.00
72438;BME280;60444;43.534;-5.674;2022-12-10T13:15:53;101201.75;;;12.92;100.00
72438;BME280;60444;43.534;-5.674;2022-12-10T13:18:42;101185.94;;;12.83;100.00
72438;BME280;60444;43.534;-5.674;2022-12-10T13:21:29;101191.91;;;12.89;100.00
72438;BME280;60444;43.534;-5.674;2022-12-10T13:24:08;101195.63;;;12.88;100.00
72438;BME280;60444;43.534;-5.674;2022-12-10T13:26:33;101173.66;;;12.76;100.00
72438;BME280;60444;43.534;-5.674;2022-12-10T13:29:23;101192.97;;;12.87;100.00
72438;BME280;60444;43.534;-5.674;2022-12-10T13:31:57;101189.63;;;12.82;100.00
72438;BME280;60444;43.534;-5.674;2022-12-10T13:37:06;101178.94;;;12.62;97.73
72438;BME280;60444;43.534;-5.674;2022-12-10T13:39:52;101199.75;;;12.61;90.33
72438;BME280;60444;43.534;-5.674;2022-12-10T13:45:16;101190.00;;;12.40;85.87
72438;BME280;60444;43.534;-5.674;2022-12-10T13:53:01;101166.50;;;12.22;88.42
72438;BME280;60444;43.534;-5.674;2022-12-10T13:58:14;101185.41;;;12.23;86.79
72438;BME280;60444;43.534;-5.674;2022-12-10T14:06:24;101175.81;;;12.16;86.27
72438;BME280;60444;43.534;-5.674;2022-12-10T14:11:34;101191.84;;;12.21;86.29
72438;BME280;60444;43.534;-5.674;2022-12-10T14:14:02;101167.09;;;12.10;89.46
72438;BME280;60444;43.534;-5.674;2022-12-10T14:16:31;101175.47;;;12.05;85.60
72438;BME280;60444;43.534;-5.674;2022-12-10T14:19:09;101186.88;;;12.12;87.71
72438;BME280;60444;43.534;-5.674;2022-12-10T14:21:38;101208.03;;;12.22;90.32
72438;BME280;60444;43.534;-5.674;2022-12-10T14:24:05;101208.22;;;12.19;86.73
72438;BME280;60444;43.534;-5.674;2022-12-10T14:26:33;101222.94;;;12.32;95.30